Terminal Aerodrome Forecast
Issued by NWS

Home | Current Version | Previous Version | Text Only | Print | Product List | Glossary On
Versions: 1 2 3 4 5 6 7 8 9 10 11 12 13 14 15 16 17 18 19 20 21 22 23 24 25 26 27 28 29 30 31
000
FTUS41 KBUF 220500
TAFJHW
TAF
KJHW 220539Z 2206/2306 30012KT P6SM OVC005
     FM221300 31012G20KT P6SM OVC012
     FM221600 30013KT P6SM BKN020
     FM222000 29013G19KT P6SM BKN025
     FM230100 29009KT P6SM BKN035
     FM230300 29006KT P6SM SCT250
      AMD LTD TO CLD VIS AND WIND=

USA.gov is the U.S. government's official web portal to all federal, state and local government web resources and services.